This is the latest recevied weather packets stored in our database for station/object LZ3DJ-10. If no packets are shown the sender has not sent any weather packets the latest 10 day(s).
| Time | Temp. | Humidity | Pressure | Rain* | Wind** | Luminosity | Snow |
|---|---|---|---|---|---|---|---|
| 1787786105 | 20.56° C | 75% | 1015.1 hPa | 0 mm | 0 m/s | - | - |
| 1787785206 | 20.56° C | 75% | 1015 hPa | 0 mm | 0 m/s | - | - |
| 1787784305 | 20.56° C | 72% | 1015 hPa | 0 mm | 0 m/s | - | - |
| 1787783405 | 20.56° C | 73% | 1015 hPa | 0 mm | 0 m/s | - | - |
| 1787782505 | 21.11° C | 73% | 1014.9 hPa | 0 mm | 0 m/s | - | - |
| 1787781606 | 21.11° C | 72% | 1015 hPa | 0 mm | 0 m/s | - | - |
| 1787780706 | 21.67° C | 71% | 1015.1 hPa | 0 mm | 0 m/s | - | - |
| 1787779806 | 21.67° C | 70% | 1014.9 hPa | 0 mm | 0 m/s | - | - |
| 1787778906 | 22.78° C | 67% | 1013 hPa | 0 mm | 0 m/s | - | - |
| 1787778005 | 22.78° C | 66% | 1014.5 hPa | 0 mm | 0 m/s | - | - |
| 1787777105 | 22.22° C | 66% | 1014.5 hPa | 0 mm | 0 m/s | - | - |
| 1787776206 | 22.78° C | 68% | 1018.1 hPa | 0 mm | 0 m/s | - | - |
| 1787775306 | 23.33° C | 66% | 1014.1 hPa | 0 mm | 0 m/s | - | - |
| 1787774406 | 23.33° C | 65% | 1013.9 hPa | 0 mm | 0 m/s | - | - |
| 1787773506 | 23.33° C | 65% | 1013.9 hPa | 0 mm | 0 m/s | - | - |
| 1787772606 | 23.33° C | 65% | 1013.7 hPa | 0 mm | 0 m/s | - | - |
| 1787771705 | 24.44° C | 62% | 1013.4 hPa | 0 mm | 0 m/s | - | - |
| 1787770806 | 25° C | 60% | 1013.2 hPa | 0 mm | 0 m/s | - | - |
| 1787769906 | 25.56° C | 58% | 1013 hPa | 0 mm | 0 m/s | - | - |
| 1787769006 | 26.11° C | 56% | 1012.8 hPa | 0 mm | 0 m/s | - | - |
| 1787768106 | 26.67° C | 54% | 1012.6 hPa | 0 mm | 0 m/s | - | - |
| 1787767205 | 26.67° C | 55% | 1012.4 hPa | 0 mm | 0 m/s | - | - |
| 1787766306 | 27.22° C | 53% | 1012.2 hPa | 0 mm | 0 m/s | - | - |
| 1787765405 | 27.22° C | 53% | 1012 hPa | 0 mm | 0 m/s | - | - |
| 1787764506 | 27.78° C | 52% | 1011.7 hPa | 0 mm | 0 m/s | - | - |
* Rain latest hour (hover to see other rain measurements)
** Current wind speed in m/s (hover to see current wind gust speed)